PDT,Max TemperatureF,Mean TemperatureF,Min TemperatureF,Max Dew PointF,MeanDew PointF,Min DewpointF,Max Humidity, Mean Humidity, Min Humidity, Max Sea Level PressureIn, Mean Sea Level PressureIn, Min Sea Level PressureIn, Max VisibilityMiles, Mean VisibilityMiles, Min VisibilityMiles, Max Wind SpeedMPH, Mean Wind SpeedMPH, Max Gust SpeedMPH,PrecipitationIn, CloudCover, Events, WindDirDegrees
2013-8-1,82,72,62,42,33,25,48,32,15,29.99,29.95,29.93,10,10,10,31,20,39,0.00,0,,340
2013-8-2,83,73,62,39,31,13,37,23,8,29.95,29.92,29.88,10,10,10,28,13,37,0.00,0,,317
2013-8-3,86,74,62,39,32,22,43,28,13,29.96,29.94,29.91,10,10,10,18,11,25,0.00,0,,250
2013-8-4,88,77,65,36,26,12,30,19,7,29.99,29.96,29.91,10,10,10,22,11,30,0.00,0,,207
2013-8-5,88,77,65,33,22,6,28,18,7,29.98,29.96,29.93,10,10,10,20,10,28,0.00,0,,207
2013-8-6,85,74,63,39,31,24,37,24,11,30.02,29.97,29.92,10,10,10,20,10,26,0.00,0,,226
2013-8-7,84,73,61,44,37,32,45,31,17,30.03,30.00,29.97,10,10,10,21,10,32,0.00,0,,321
2013-8-8,81,70,58,46,38,32,67,43,18,29.97,29.94,29.91,10,10,10,23,11,28,0.00,0,,239
2013-8-9,82,70,58,43,36,25,48,32,15,29.96,29.91,29.86,10,10,10,20,9,26,0.00,0,,232
2013-8-10,79,70,60,42,39,35,49,35,21,30.00,29.97,29.92,10,10,10,24,16,31,0.00,0,,344
2013-8-11,84,72,60,47,41,37,60,40,20,29.98,29.95,29.93,10,10,10,28,14,36,0.00,0,,343
2013-8-12,87,75,63,44,38,33,48,32,15,29.97,29.94,29.89,10,10,10,29,15,33,0.00,0,,340
2013-8-13,94,80,66,44,35,26,45,28,10,29.97,29.94,29.92,10,10,10,30,12,38,0.00,0,,330
2013-8-14,92,81,70,40,29,17,33,20,7,29.96,29.93,29.91,10,10,10,32,15,38,0.00,0,,338
2013-8-15,95,83,71,43,31,19,31,19,7,30.13,29.95,29.91,10,10,10,21,11,30,0.00,0,,229
2013-8-16,93,83,72,44,38,26,31,23,14,29.99,29.96,29.93,10,10,10,20,11,28,0.00,0,,242
2013-8-17,94,83,72,45,39,33,35,24,12,29.97,29.92,29.87,10,10,10,21,11,26,0.00,0,,291
2013-8-18,94,82,70,50,39,32,41,27,12,29.92,29.89,29.84,10,10,10,33,12,47,0.00,0,,159
2013-8-19,93,82,71,53,48,40,49,36,23,29.96,29.91,29.88,10,10,10,33,18,44,0.00,1,,137
2013-8-20,91,81,70,48,36,22,44,27,10,29.93,29.90,29.87,10,10,10,23,13,31,0.00,0,,177
2013-8-21,92,81,70,34,16,-12,26,15,3,29.95,29.92,29.88,10,10,10,24,14,31,0.00,0,,187
2013-8-22,93,82,71,21,17,13,14,10,6,29.94,29.91,29.86,10,10,10,25,13,33,0.00,0,,192
2013-8-23,91,80,68,38,26,11,32,20,7,30.04,29.85,29.79,10,10,10,23,11,30,0.00,0,,204
2013-8-24,90,78,65,44,32,18,45,26,7,29.90,29.84,29.80,10,10,10,20,10,24,0.00,0,,232
2013-8-25,89,78,66,45,33,24,34,23,12,29.96,29.92,29.87,10,10,10,22,9,30,0.00,0,,191
2013-8-26,86,77,67,52,44,18,53,34,14,29.99,29.93,29.88,10,10,10,18,9,24,0.00,2,,135
2013-8-27,86,76,66,57,54,51,68,51,34,29.91,29.87,29.83,10,10,10,22,11,29,0.00,3,,97
2013-8-28,90,79,68,53,46,41,51,37,22,29.96,29.90,29.83,10,10,10,21,10,29,0.00,0,,218
2013-8-29,96,84,71,47,42,39,38,28,17,30.18,29.99,29.93,10,10,10,20,9,33,0.00,0,,301
2013-8-30,93,82,70,60,54,48,68,48,27,30.04,30.00,29.96,10,10,10,23,12,31,0.00,0,,197
2013-8-31,89,79,68,61,60,57,76,55,34,30.02,29.98,29.93,10,10,10,22,11,31,0.00,1,,190